createdAt,value
2023-05-22T00:00:23.474Z,10.75
2023-05-22T00:02:52.631Z,11.98
2023-05-22T00:05:22.617Z,12.35
2023-05-22T00:07:51.195Z,11.63
2023-05-22T00:10:19.496Z,11.07
2023-05-22T00:12:47.770Z,11.43
2023-05-22T00:15:16.124Z,11.02
2023-05-22T00:17:44.557Z,10.17
2023-05-22T00:20:13.517Z,11.13
2023-05-22T00:22:43.159Z,12.00
2023-05-22T00:25:12.371Z,11.80
2023-05-22T00:27:40.656Z,10.18
2023-05-22T00:30:09.854Z,12.15
2023-05-22T00:32:38.265Z,11.52
2023-05-22T00:35:07.685Z,13.15
2023-05-22T00:37:35.906Z,13.23
2023-05-22T00:40:06.746Z,13.90
2023-05-22T00:42:35.062Z,14.03
2023-05-22T00:45:03.327Z,14.48
2023-05-22T00:47:32.371Z,17.42
2023-05-22T00:50:01.844Z,17.87
2023-05-22T00:52:30.410Z,19.20
2023-05-22T00:54:59.715Z,19.98
2023-05-22T00:57:29.360Z,19.42
2023-05-22T00:59:57.707Z,21.77
2023-05-22T01:02:28.178Z,20.33
2023-05-22T01:04:58.136Z,17.85
2023-05-22T01:07:26.593Z,19.80
2023-05-22T01:09:56.254Z,19.40
2023-05-22T01:12:32.275Z,19.95
2023-05-22T01:15:11.782Z,22.75
2023-05-22T01:17:46.337Z,23.23
2023-05-22T01:20:22.482Z,22.52
2023-05-22T01:23:16.233Z,22.60
2023-05-22T01:26:03.916Z,25.83
2023-05-22T01:28:43.734Z,27.30
2023-05-22T01:31:16.978Z,23.40
2023-05-22T01:33:50.075Z,25.35
2023-05-22T01:36:22.554Z,25.20
2023-05-22T01:38:52.106Z,23.50
2023-05-22T01:41:21.360Z,23.38
2023-05-22T01:43:49.883Z,25.20
2023-05-22T01:46:19.669Z,27.45
2023-05-22T01:48:49.348Z,24.83
2023-05-22T01:51:24.988Z,26.35
2023-05-22T01:53:58.462Z,26.08
2023-05-22T01:56:35.338Z,29.00
2023-05-22T01:59:11.665Z,26.33
2023-05-22T02:01:42.711Z,27.37
2023-05-22T02:04:11.586Z,24.63
2023-05-22T02:06:40.734Z,26.23
2023-05-22T02:09:09.974Z,25.53
2023-05-22T02:11:41.378Z,24.88
2023-05-22T02:14:13.696Z,23.77
2023-05-22T02:16:46.896Z,25.07
2023-05-22T02:19:15.726Z,25.58
2023-05-22T02:21:44.637Z,25.52
2023-05-22T02:24:12.893Z,26.02
2023-05-22T02:26:43.489Z,23.48
2023-05-22T02:29:12.980Z,21.48
2023-05-22T02:31:41.405Z,22.27
2023-05-22T02:34:11.162Z,24.02
2023-05-22T02:36:39.836Z,23.73
2023-05-22T02:39:11.824Z,22.23
2023-05-22T02:41:40.614Z,25.75
2023-05-22T02:44:09.204Z,25.05
2023-05-22T02:46:37.582Z,24.33
2023-05-22T02:49:05.923Z,26.10
2023-05-22T02:51:35.830Z,24.40
2023-05-22T02:54:04.358Z,26.57
2023-05-22T02:56:32.736Z,25.02
2023-05-22T02:59:00.984Z,25.95
2023-05-22T03:01:30.629Z,23.73
2023-05-22T03:03:59.105Z,24.27
2023-05-22T03:06:27.352Z,26.67
2023-05-22T03:08:57.165Z,22.13
2023-05-22T03:11:25.708Z,23.40
2023-05-22T03:13:54.199Z,23.80
2023-05-22T03:16:22.503Z,25.40
2023-05-22T03:18:53.503Z,26.45
2023-05-22T03:21:21.904Z,28.27
2023-05-22T03:23:50.136Z,27.33
2023-05-22T03:26:19.724Z,32.90
2023-05-22T03:28:48.267Z,32.38
2023-05-22T03:31:17.901Z,32.40
2023-05-22T03:33:59.735Z,35.65
2023-05-22T03:36:28.716Z,33.78
2023-05-22T03:38:57.834Z,34.47
2023-05-22T03:41:27.482Z,33.08
2023-05-22T03:43:57.322Z,32.20
2023-05-22T03:46:26.574Z,35.35
2023-05-22T03:48:55.001Z,32.85
2023-05-22T03:51:23.241Z,33.15
2023-05-22T03:53:51.512Z,35.85
2023-05-22T03:56:19.982Z,33.80
2023-05-22T03:58:51.408Z,33.65
2023-05-22T04:01:19.886Z,35.95
2023-05-22T04:03:48.144Z,35.47
2023-05-22T04:06:16.456Z,34.13
2023-05-22T04:08:44.889Z,33.63
2023-05-22T04:11:15.719Z,34.70
2023-05-22T04:13:44.015Z,35.45
2023-05-22T04:16:13.805Z,34.83
2023-05-22T04:18:42.036Z,30.63
2023-05-22T04:21:10.473Z,34.28
2023-05-22T04:23:43.300Z,34.95
2023-05-22T04:26:11.786Z,33.17
2023-05-22T04:28:40.450Z,34.10
2023-05-22T04:31:08.802Z,32.40
2023-05-22T04:33:40.097Z,35.08
2023-05-22T04:36:12.292Z,36.40
2023-05-22T04:38:41.494Z,37.15
2023-05-22T04:41:13.512Z,36.65
2023-05-22T04:43:41.855Z,38.80
2023-05-22T04:46:10.220Z,37.10
2023-05-22T04:48:40.520Z,36.70
2023-05-22T04:51:09.654Z,38.15
2023-05-22T04:53:38.762Z,37.53
2023-05-22T04:56:08.099Z,37.08
2023-05-22T04:58:37.923Z,38.20
2023-05-22T05:01:07.419Z,36.00
2023-05-22T05:03:35.916Z,39.03
2023-05-22T05:06:06.027Z,35.75
2023-05-22T05:08:34.345Z,36.75
2023-05-22T05:11:02.606Z,35.65
2023-05-22T05:13:30.964Z,35.83
2023-05-22T05:16:00.776Z,36.00
2023-05-22T05:18:29.309Z,34.60
2023-05-22T05:20:57.766Z,33.40
2023-05-22T05:23:27.394Z,35.95
2023-05-22T05:25:56.934Z,34.00
2023-05-22T05:28:26.512Z,35.25
2023-05-22T05:30:55.922Z,35.92
2023-05-22T05:33:56.696Z,34.20
2023-05-22T05:36:36.762Z,33.50
2023-05-22T05:39:06.745Z,36.65
2023-05-22T05:41:36.645Z,36.60
2023-05-22T05:44:09.962Z,36.25
2023-05-22T05:46:39.300Z,32.67
2023-05-22T05:49:10.191Z,34.53
2023-05-22T05:51:39.960Z,34.22
2023-05-22T05:54:10.991Z,33.33
2023-05-22T05:56:39.915Z,33.30
2023-05-22T05:59:08.272Z,34.35
2023-05-22T06:01:39.898Z,32.08
2023-05-22T06:04:14.222Z,33.47
2023-05-22T06:06:44.405Z,30.55
2023-05-22T06:09:14.186Z,33.83
2023-05-22T06:12:01.530Z,31.15
2023-05-22T06:14:30.717Z,33.47
2023-05-22T06:16:59.133Z,30.90
2023-05-22T06:19:28.332Z,30.63
2023-05-22T06:21:57.069Z,28.25
2023-05-22T06:24:27.490Z,30.98
2023-05-22T06:26:55.956Z,28.20
2023-05-22T06:29:24.280Z,28.80
2023-05-22T06:31:54.536Z,30.95
2023-05-22T06:34:23.835Z,29.88
2023-05-22T06:36:52.843Z,28.50
2023-05-22T06:39:27.159Z,32.20
2023-05-22T06:41:58.258Z,30.45
2023-05-22T06:44:26.816Z,31.80
2023-05-22T06:46:57.370Z,33.17
2023-05-22T06:49:27.203Z,33.83
2023-05-22T06:51:57.142Z,31.95
2023-05-22T06:54:28.677Z,32.63
2023-05-22T06:57:00.507Z,32.55
2023-05-22T06:59:29.539Z,31.90
2023-05-22T07:02:00.871Z,32.63
2023-05-22T07:04:59.338Z,30.27
2023-05-22T07:07:35.384Z,29.85
2023-05-22T07:10:04.316Z,30.80
2023-05-22T07:12:34.260Z,30.65
2023-05-22T07:15:02.565Z,27.80
2023-05-22T07:17:33.069Z,30.67
2023-05-22T07:20:01.393Z,27.02
2023-05-22T07:22:31.185Z,28.40
2023-05-22T07:24:59.600Z,28.35
2023-05-22T07:27:33.971Z,27.08
2023-05-22T07:30:04.001Z,25.73
2023-05-22T07:32:33.605Z,26.42
2023-05-22T07:35:04.832Z,29.35
2023-05-22T07:37:33.584Z,28.98
2023-05-22T07:40:02.154Z,28.35
2023-05-22T07:42:32.040Z,29.00
2023-05-22T07:45:02.491Z,25.30
2023-05-22T07:47:30.893Z,25.52
2023-05-22T07:49:59.197Z,25.83
2023-05-22T07:52:27.601Z,26.52
2023-05-22T07:54:56.114Z,25.60
2023-05-22T07:57:26.596Z,28.42
2023-05-22T07:59:59.302Z,26.85
2023-05-22T08:02:29.000Z,25.13
2023-05-22T08:04:57.432Z,26.48
2023-05-22T08:07:25.852Z,26.95
2023-05-22T08:09:54.164Z,26.60
2023-05-22T08:12:22.432Z,26.70
2023-05-22T08:14:50.702Z,24.65
2023-05-22T08:17:19.152Z,28.30
2023-05-22T08:19:48.963Z,27.00
2023-05-22T08:22:17.801Z,25.10
2023-05-22T08:24:46.042Z,28.48
2023-05-22T08:27:14.271Z,28.10
2023-05-22T08:29:42.566Z,27.42
2023-05-22T08:32:10.822Z,27.33
2023-05-22T08:34:40.304Z,27.25
2023-05-22T08:37:10.661Z,29.48
2023-05-22T08:39:38.892Z,27.25
2023-05-22T08:42:07.585Z,28.17
2023-05-22T08:44:36.029Z,28.05
2023-05-22T08:47:09.951Z,27.33
2023-05-22T08:49:40.149Z,26.38
2023-05-22T08:52:14.519Z,26.75
2023-05-22T08:54:54.061Z,26.70
2023-05-22T08:57:23.145Z,25.00
2023-05-22T08:59:51.880Z,23.40
2023-05-22T09:02:21.175Z,25.35
2023-05-22T09:04:49.389Z,24.45
2023-05-22T09:07:22.139Z,21.60
2023-05-22T09:09:50.873Z,25.13
2023-05-22T09:12:19.147Z,22.88
2023-05-22T09:14:47.409Z,22.80
2023-05-22T09:17:17.114Z,22.55
2023-05-22T09:19:46.385Z,24.85
2023-05-22T09:22:16.763Z,26.50
2023-05-22T09:24:47.075Z,25.10
2023-05-22T09:27:15.501Z,24.95
2023-05-22T09:29:50.804Z,23.38
2023-05-22T09:32:20.992Z,24.60
2023-05-22T09:34:49.496Z,27.05
2023-05-22T09:37:19.234Z,25.33
2023-05-22T09:39:51.507Z,26.30
2023-05-22T09:42:19.977Z,23.88
2023-05-22T09:44:50.158Z,26.30
2023-05-22T09:47:18.449Z,26.80
2023-05-22T09:49:47.175Z,23.88
2023-05-22T09:52:16.576Z,22.30
2023-05-22T09:54:51.054Z,22.50
2023-05-22T09:57:20.711Z,20.80
2023-05-22T09:59:54.270Z,24.13
2023-05-22T10:02:24.141Z,22.75
2023-05-22T10:04:53.423Z,23.02
2023-05-22T10:07:24.128Z,22.05
2023-05-22T10:09:58.099Z,23.13
2023-05-22T10:12:29.825Z,25.58
2023-05-22T10:14:58.591Z,24.27
2023-05-22T10:17:27.740Z,21.65
2023-05-22T10:19:57.449Z,22.67
2023-05-22T10:22:28.741Z,22.08
2023-05-22T10:24:59.800Z,22.08
2023-05-22T10:27:28.101Z,20.42
2023-05-22T10:30:00.870Z,22.50
2023-05-22T10:32:36.931Z,19.15
2023-05-22T10:35:19.363Z,21.40
2023-05-22T10:37:52.182Z,20.25
2023-05-22T10:40:29.007Z,23.17
2023-05-22T10:43:00.992Z,22.38
2023-05-22T10:45:30.112Z,20.33
2023-05-22T10:48:05.612Z,22.98
2023-05-22T10:50:34.875Z,19.50
2023-05-22T10:53:23.522Z,19.98
2023-05-22T10:55:54.422Z,19.23
2023-05-22T10:58:27.833Z,18.98
2023-05-22T11:01:15.956Z,19.33
2023-05-22T11:03:54.497Z,18.27
2023-05-22T11:06:36.376Z,19.27
2023-05-22T11:09:21.829Z,16.58
2023-05-22T11:12:18.271Z,18.70
2023-05-22T11:14:54.097Z,19.13
2023-05-22T11:17:24.308Z,18.13
2023-05-22T11:20:00.585Z,18.58
2023-05-22T11:22:33.438Z,18.85
2023-05-22T11:25:06.185Z,18.30
2023-05-22T11:27:36.490Z,16.58
2023-05-22T11:30:06.700Z,17.90
2023-05-22T11:32:37.235Z,16.63
2023-05-22T11:35:08.375Z,18.35
2023-05-22T11:37:40.086Z,16.50
2023-05-22T11:40:09.642Z,16.75
2023-05-22T11:42:39.419Z,16.65
2023-05-22T11:45:08.604Z,16.42
2023-05-22T11:47:37.437Z,16.27
2023-05-22T11:50:07.208Z,16.38
2023-05-22T11:52:37.108Z,13.77
2023-05-22T11:55:06.474Z,16.70
2023-05-22T11:57:35.424Z,15.43
2023-05-22T12:00:06.613Z,16.05
2023-05-22T12:02:46.022Z,14.80
2023-05-22T12:05:15.931Z,14.80
2023-05-22T12:07:44.642Z,18.02
2023-05-22T12:10:14.865Z,15.57
2023-05-22T12:12:44.512Z,17.08
2023-05-22T12:15:15.276Z,15.70
2023-05-22T12:17:44.255Z,16.58
2023-05-22T12:20:14.552Z,16.83
2023-05-22T12:22:44.116Z,18.08
2023-05-22T12:25:17.210Z,16.77
2023-05-22T12:27:46.293Z,15.98
2023-05-22T12:30:16.959Z,18.17
2023-05-22T12:32:49.735Z,17.00
2023-05-22T12:35:18.350Z,16.58
2023-05-22T12:37:50.703Z,19.23
2023-05-22T12:40:19.320Z,17.45
2023-05-22T12:42:48.809Z,17.75
2023-05-22T12:45:18.877Z,16.73
2023-05-22T12:47:47.368Z,16.42
2023-05-22T12:50:15.773Z,17.10
2023-05-22T12:52:44.029Z,16.25
2023-05-22T12:55:12.751Z,16.13
2023-05-22T12:57:41.005Z,15.18
2023-05-22T13:00:10.141Z,16.95
2023-05-22T13:02:39.909Z,16.70
2023-05-22T13:05:08.950Z,16.00
2023-05-22T13:07:37.918Z,18.33
2023-05-22T13:10:06.959Z,18.55
2023-05-22T13:12:35.298Z,18.77
2023-05-22T13:15:03.682Z,18.67
2023-05-22T13:17:33.985Z,20.00
2023-05-22T13:20:04.459Z,19.98
2023-05-22T13:22:32.779Z,19.45
2023-05-22T13:25:01.124Z,19.05
2023-05-22T13:27:31.940Z,20.23
2023-05-22T13:30:02.048Z,19.15
2023-05-22T13:32:30.722Z,18.92
2023-05-22T13:34:58.961Z,17.88
2023-05-22T13:37:28.619Z,17.40
2023-05-22T13:39:56.913Z,18.42
2023-05-22T13:42:25.281Z,16.13
2023-05-22T13:44:53.588Z,15.55
2023-05-22T13:47:23.002Z,15.85
2023-05-22T13:49:51.762Z,16.33
2023-05-22T13:52:20.116Z,16.48
2023-05-22T13:54:50.264Z,17.30
2023-05-22T13:57:18.632Z,16.88
2023-05-22T13:59:46.949Z,17.30
2023-05-22T14:02:15.428Z,16.65
2023-05-22T14:04:43.818Z,17.92
2023-05-22T14:07:12.122Z,18.05
2023-05-22T14:09:40.417Z,18.25
2023-05-22T14:12:10.171Z,18.25
2023-05-22T14:14:38.484Z,18.10
2023-05-22T14:17:08.264Z,19.40
2023-05-22T14:19:36.851Z,16.88
2023-05-22T14:22:05.546Z,17.95
2023-05-22T14:24:33.864Z,20.10
2023-05-22T14:27:02.130Z,19.63
2023-05-22T14:29:32.515Z,19.92
2023-05-22T14:32:04.976Z,20.65
2023-05-22T14:34:33.373Z,20.75
2023-05-22T14:37:01.683Z,20.65
2023-05-22T14:39:30.050Z,20.98
2023-05-22T14:41:58.605Z,20.80
2023-05-22T14:44:26.943Z,21.42
2023-05-22T14:46:56.567Z,22.13
2023-05-22T14:49:24.954Z,22.73
2023-05-22T14:51:53.298Z,21.90
2023-05-22T14:54:23.693Z,23.77
2023-05-22T14:56:51.993Z,21.85
2023-05-22T14:59:20.216Z,22.05
2023-05-22T15:01:50.493Z,21.73
2023-05-22T15:04:20.772Z,21.38
2023-05-22T15:06:49.388Z,21.35
2023-05-22T15:09:17.653Z,20.35
2023-05-22T15:11:49.125Z,21.92
2023-05-22T15:14:17.615Z,21.88
2023-05-22T15:16:46.989Z,21.10
2023-05-22T15:19:15.334Z,20.92
2023-05-22T15:21:45.048Z,19.45
2023-05-22T15:24:13.353Z,18.85
2023-05-22T15:26:41.592Z,18.75
2023-05-22T15:29:09.909Z,19.23
2023-05-22T15:31:38.558Z,19.23
2023-05-22T15:34:06.871Z,18.38
2023-05-22T15:36:37.140Z,19.35
2023-05-22T15:39:07.245Z,20.45
2023-05-22T15:41:35.508Z,21.67
2023-05-22T15:44:03.731Z,20.67
2023-05-22T15:46:32.338Z,21.95
2023-05-22T15:49:00.626Z,20.73
2023-05-22T15:51:28.867Z,21.98
2023-05-22T15:53:58.024Z,19.60
2023-05-22T15:56:27.744Z,21.42
2023-05-22T15:58:56.236Z,20.73
2023-05-22T16:01:25.207Z,20.13
2023-05-22T16:03:53.653Z,19.13
2023-05-22T16:06:23.296Z,19.92
2023-05-22T16:08:51.544Z,21.33
2023-05-22T16:11:19.847Z,17.58
2023-05-22T16:13:50.155Z,22.02
2023-05-22T16:16:18.493Z,21.13
2023-05-22T16:18:49.844Z,20.45
2023-05-22T16:21:18.131Z,20.52
2023-05-22T16:23:46.402Z,19.70
2023-05-22T16:26:17.934Z,21.35
2023-05-22T16:28:46.327Z,21.05
2023-05-22T16:31:19.270Z,19.90
2023-05-22T16:33:47.791Z,18.70
2023-05-22T16:36:16.076Z,17.80
2023-05-22T16:38:44.424Z,18.63
2023-05-22T16:41:12.781Z,18.92
2023-05-22T16:43:41.051Z,17.20
2023-05-22T16:46:09.274Z,17.48
2023-05-22T16:48:39.005Z,15.68
2023-05-22T16:51:07.424Z,15.52
2023-05-22T16:53:37.396Z,15.18
2023-05-22T16:56:06.993Z,14.75
2023-05-22T16:58:35.634Z,15.38
2023-05-22T17:01:06.319Z,14.60
2023-05-22T17:03:35.482Z,15.43
2023-05-22T17:06:05.889Z,14.35
2023-05-22T17:08:34.151Z,15.68
2023-05-22T17:11:02.465Z,14.93
2023-05-22T17:13:31.033Z,15.57
2023-05-22T17:15:59.439Z,13.50
2023-05-22T17:18:27.780Z,14.02
2023-05-22T17:20:56.070Z,11.65
2023-05-22T17:23:25.930Z,12.30
2023-05-22T17:26:07.824Z,11.60
2023-05-22T17:28:36.418Z,12.63
2023-05-22T17:31:04.654Z,11.73
2023-05-22T17:33:33.514Z,13.38
2023-05-22T17:36:01.885Z,11.85
2023-05-22T17:38:31.543Z,11.95
2023-05-22T17:41:00.842Z,12.23
2023-05-22T17:43:29.444Z,11.32
2023-05-22T17:45:58.450Z,10.77
2023-05-22T17:48:27.199Z,10.00
2023-05-22T17:50:55.912Z,10.43
2023-05-22T17:53:24.206Z,9.88
2023-05-22T17:55:54.047Z,10.50
2023-05-22T17:58:22.570Z,10.52
2023-05-22T18:00:50.935Z,10.82
2023-05-22T18:03:20.834Z,10.10
2023-05-22T18:05:49.471Z,10.50
2023-05-22T18:08:17.906Z,9.82
2023-05-22T18:10:46.158Z,9.65
2023-05-22T18:13:16.088Z,10.80
2023-05-22T18:15:44.454Z,10.40
2023-05-22T18:18:13.192Z,10.10
2023-05-22T18:20:41.759Z,11.35
2023-05-22T18:23:10.304Z,10.40
2023-05-22T18:25:38.576Z,11.52
2023-05-22T18:28:08.247Z,11.68
2023-05-22T18:30:38.184Z,11.20
2023-05-22T18:33:06.813Z,10.63
2023-05-22T18:35:35.069Z,11.05
2023-05-22T18:38:03.695Z,10.85
2023-05-22T18:40:32.099Z,10.95
2023-05-22T18:43:03.022Z,10.77
2023-05-22T18:45:31.337Z,11.30
2023-05-22T18:48:01.042Z,10.80
2023-05-22T18:50:29.573Z,10.77
2023-05-22T18:52:57.910Z,10.00
2023-05-22T18:55:26.375Z,10.90
2023-05-22T18:57:54.733Z,9.68
2023-05-22T19:00:23.110Z,11.02
2023-05-22T19:02:51.464Z,10.35
2023-05-22T19:05:21.468Z,11.00
2023-05-22T19:07:49.934Z,11.10
2023-05-22T19:10:18.269Z,11.05
2023-05-22T19:12:46.513Z,12.05
2023-05-22T19:15:14.871Z,10.07
2023-05-22T19:17:43.274Z,11.02
2023-05-22T19:20:12.332Z,12.00
2023-05-22T19:22:42.157Z,12.70
2023-05-22T19:25:11.109Z,14.07
2023-05-22T19:27:39.612Z,15.00
2023-05-22T19:30:09.097Z,14.30
2023-05-22T19:32:37.569Z,13.77
2023-05-22T19:35:06.661Z,16.90
2023-05-22T19:37:34.973Z,15.23
2023-05-22T19:40:06.246Z,16.13
2023-05-22T19:42:34.743Z,15.57
2023-05-22T19:45:03.488Z,14.20
2023-05-22T19:47:32.265Z,15.27
2023-05-22T19:50:00.597Z,16.02
2023-05-22T19:52:29.030Z,17.67
2023-05-22T19:54:57.421Z,17.77
2023-05-22T19:57:27.199Z,16.45
2023-05-22T19:59:55.724Z,15.75
2023-05-22T20:02:24.136Z,18.73
2023-05-22T20:04:55.027Z,16.70
2023-05-22T20:07:23.414Z,18.42
2023-05-22T20:09:51.782Z,17.75
2023-05-22T20:12:20.071Z,20.17
2023-05-22T20:14:49.974Z,17.90
2023-05-22T20:17:22.386Z,20.63
2023-05-22T20:19:50.932Z,19.42
2023-05-22T20:22:19.248Z,19.77
2023-05-22T20:24:48.315Z,20.98
2023-05-22T20:27:16.827Z,19.58
2023-05-22T20:29:45.262Z,22.40
2023-05-22T20:32:14.960Z,21.80
2023-05-22T20:34:45.168Z,22.35
2023-05-22T20:37:13.842Z,21.63
2023-05-22T20:39:42.795Z,21.55
2023-05-22T20:42:13.044Z,23.30
2023-05-22T20:44:42.013Z,24.17
2023-05-22T20:47:10.866Z,24.23
2023-05-22T20:49:41.266Z,25.25
2023-05-22T20:52:10.186Z,24.35
2023-05-22T20:54:38.432Z,27.58
2023-05-22T20:57:07.060Z,24.53
2023-05-22T20:59:37.478Z,26.27
2023-05-22T21:02:06.078Z,23.88
2023-05-22T21:04:34.315Z,24.67
2023-05-22T21:07:04.937Z,23.63
2023-05-22T21:09:33.262Z,24.10
2023-05-22T21:12:01.546Z,23.57
2023-05-22T21:14:29.790Z,23.50
2023-05-22T21:16:58.077Z,20.07
2023-05-22T21:19:26.783Z,21.38
2023-05-22T21:21:55.066Z,20.90
2023-05-22T21:24:24.651Z,21.85
2023-05-22T21:26:52.928Z,22.23
2023-05-22T21:29:21.219Z,20.43
2023-05-22T21:31:49.579Z,23.05
2023-05-22T21:34:17.895Z,21.50
2023-05-22T21:36:46.123Z,20.93
2023-05-22T21:39:14.514Z,20.40
2023-05-22T21:41:44.134Z,21.27
2023-05-22T21:44:12.374Z,21.47
2023-05-22T21:46:40.659Z,20.23
2023-05-22T21:49:09.747Z,21.83
2023-05-22T21:51:38.417Z,23.77
2023-05-22T21:54:06.837Z,23.50
2023-05-22T21:56:35.063Z,24.67
2023-05-22T21:59:05.889Z,26.07
2023-05-22T22:01:34.354Z,25.03
2023-05-22T22:04:02.689Z,24.70
2023-05-22T22:06:31.318Z,25.33
2023-05-22T22:09:00.664Z,26.47
2023-05-22T22:11:28.966Z,27.23
2023-05-22T22:13:57.251Z,26.93
2023-05-22T22:16:28.039Z,25.17
2023-05-22T22:18:58.121Z,23.97
2023-05-22T22:21:26.492Z,24.73
2023-05-22T22:23:54.822Z,24.53
2023-05-22T22:26:23.071Z,21.00
2023-05-22T22:28:51.379Z,23.83
2023-05-22T22:31:19.649Z,22.80
2023-05-22T22:33:49.275Z,23.50
2023-05-22T22:36:17.760Z,22.53
2023-05-22T22:38:46.021Z,21.27
2023-05-22T22:41:14.243Z,21.83
2023-05-22T22:43:42.498Z,22.17
2023-05-22T22:46:10.792Z,23.87
2023-05-22T22:48:41.702Z,25.53
2023-05-22T22:51:11.595Z,24.23
2023-05-22T22:53:40.214Z,26.80
2023-05-22T22:56:08.643Z,26.47
2023-05-22T22:58:36.938Z,25.33
2023-05-22T23:01:05.573Z,28.23
2023-05-22T23:03:35.461Z,28.53
2023-05-22T23:06:03.968Z,28.30
2023-05-22T23:08:33.620Z,28.10
2023-05-22T23:11:01.870Z,27.63
2023-05-22T23:13:30.153Z,28.93
2023-05-22T23:15:58.470Z,29.17
2023-05-22T23:18:26.729Z,27.93
2023-05-22T23:20:54.989Z,29.93
2023-05-22T23:23:23.272Z,27.83
2023-05-22T23:25:53.058Z,28.00
2023-05-22T23:28:21.318Z,24.33
2023-05-22T23:30:49.630Z,25.35
2023-05-22T23:33:17.855Z,26.97
2023-05-22T23:35:46.142Z,24.40
2023-05-22T23:38:14.474Z,25.37
2023-05-22T23:40:42.698Z,25.57
2023-05-22T23:43:12.297Z,23.10
2023-05-22T23:45:40.789Z,24.73
2023-05-22T23:48:09.201Z,24.03
2023-05-22T23:50:37.583Z,24.73
2023-05-22T23:53:05.897Z,23.60
2023-05-22T23:55:34.154Z,21.30
2023-05-22T23:58:02.387Z,21.30
